Terminal Aerodrome Forecast
Issued by NWS Medford, OR

Home | Current Version | Previous Version | Text Only | Print | Product List | Glossary On
Versions: 1 2 3 4 5 6 7 8 9 10 11 12 13 14 15 16 17
000
FTUS46 KMFR 251140
TAFMFR
TAF
KMFR 251140Z 2512/2612 29003KT P6SM -SHRA OVC035
      TEMPO 2512/2514 BKN025
     FM251900 32005KT P6SM FEW035 BKN040 OVC070
     FM260900 VRB03KT P6SM BKN025 OVC040=

USA.gov is the U.S. government's official web portal to all federal, state and local government web resources and services.